• Join FlightAware (Why Join?)
  • Login
  • US Flag 
11:26AM EDT


 

Airport Tracker/Info


-or-


 

Live Flight TrackerFlight Track Log ✈ EJA929 ✈ 28-Feb-2014 ✈ KTPA - KTEB

Flight Track Log - Related Links

Times and Time Zones

All times are in EST time to prevent confusion due to time zone crossing. See the EJA929 flight status page for this flight to view local times or setup timezone preferences in your user account.

Time Position Orientation Groundspeed Altitude Reporting Facility
EST Latitude Longitude Course Direction KTS MPH feet Rate Location/Type
03:36PM 28.0000 -82.5333 360° North 166 191 1,000  Level Tampa TRACON
03:37PM 28.0667 -82.5333 360° North 249 287 6,000 3,480 Climbing Tampa TRACON
03:38PM 28.1500 -82.5333 360° North 281 323 9,500 2,040 Climbing Tampa TRACON
03:41PM 28.3644 -82.5836 348° North 340 391 13,200 1,860 Climbing Jacksonville Center
03:42PM 28.4689 -82.5856 359° North 355 409 15,800 2,220 Climbing Jacksonville Center
03:43PM 28.5711 -82.5900 358° North 360 414 17,700 1,980 Climbing Jacksonville Center
03:44PM 28.6797 -82.5919 359° North 371 427 19,800 2,400 Climbing Jacksonville Center
03:45PM 28.7839 -82.6036 354° North 371 427 22,500 2,640 Climbing Jacksonville Center
03:46PM 28.8925 -82.6197 353° North 376 433 25,100 2,640 Climbing Jacksonville Center
03:47PM 28.9950 -82.6339 353° North 376 433 27,800 1,620 Climbing Jacksonville Center
03:48PM 29.1056 -82.6503 353° North 382 440 28,400 720 Climbing Jacksonville Center
03:49PM 29.2244 -82.6667 353° North 397 457 29,300 900 Climbing Jacksonville Center
03:50PM 29.3456 -82.6831 353° North 419 482 30,300 960 Climbing Jacksonville Center
03:51PM 29.4731 -82.6944 356° North 438 504 31,300 1,200 Climbing Jacksonville Center
03:52PM 29.6003 -82.6919 North 451 519 32,800 1,080 Climbing Jacksonville Center
03:53PM 29.7297 -82.6942 359° North 451 519 33,500 720 Climbing Jacksonville Center
03:54PM 29.8550 -82.6914 North 462 532 34,300 900 Climbing Jacksonville Center
03:55PM 29.9864 -82.6503 15° North 476 548 35,300 1,080 Climbing Jacksonville Center
03:56PM 30.1158 -82.5997 19° North 476 548 36,500 1,380 Climbing Jacksonville Center
03:57PM 30.2453 -82.5486 19° North 482 555 38,100 1,320 Climbing Jacksonville Center
03:58PM 30.3558 -82.5050 19° North 482 555 39,200 1,020 Climbing Jacksonville Center
03:59PM 30.4808 -82.4539 19° North 482 555 40,200 900 Climbing Jacksonville Center
04:00PM 30.6100 -82.4050 18° North 482 555 41,000 360 Climbing Jacksonville Center
04:01PM 30.7414 -82.3489 20° North 492 566 41,000  Level Jacksonville Center
04:02PM 30.8789 -82.2947 19° North 505 581 41,000  Level Jacksonville Center
04:03PM 31.0206 -82.2406 18° North 512 589 41,000  Level Jacksonville Center
04:04PM 31.1625 -82.1836 19° North 524 603 41,000  Level Jacksonville Center
04:05PM 31.3061 -82.1242 19° North 531 611 41,000  Level Jacksonville Center
04:06PM 31.4456 -82.0669 19° North 536 617 41,000  Level Jacksonville Center
04:07PM 31.5975 -82.0022 20° North 531 611 41,000  Level Jacksonville Center
04:08PM 31.7289 -81.9522 18° North 537 618 41,000  Level Jacksonville Center
04:09PM 31.8847 -81.8844 20° North 542 624 41,000  Level Jacksonville Center
04:10PM 32.0264 -81.8267 19° North 542 624 41,000  Level Jacksonville Center
04:11PM 32.1511 -81.7564 26° Northeast 542 624 41,000  Level Jacksonville Center
04:12PM 32.3003 -81.6564 30° Northeast 548 631 41,000  Level Jacksonville Center
04:13PM 32.4372 -81.5633 30° Northeast 559 643 41,000  Level Jacksonville Center
04:14PM 32.5553 -81.4778 31° Northeast 554 638 41,000  Level Jacksonville Center
04:15PM 32.7044 -81.3742 30° Northeast 554 638 41,000  Level Jacksonville Center
04:16PM 32.8411 -81.2806 30° Northeast 554 638 41,000  Level Jacksonville Center
04:17PM 32.9753 -81.1839 31° Northeast 554 638 41,000  Level Jacksonville Center
04:18PM 33.1097 -81.0922 30° Northeast 554 638 41,000  Level Jacksonville Center
04:19PM 33.2461 -80.9950 31° Northeast 554 638 41,000  Level Jacksonville Center
04:20PM 33.3825 -80.8975 31° Northeast 554 638 41,000  Level Jacksonville Center
04:21PM 33.5164 -80.8025 31° Northeast 554 638 41,000  Level Jacksonville Center
04:22PM 33.6525 -80.7069 30° Northeast 554 638 41,000  Level Jacksonville Center
04:23PM 33.7844 -80.6111 31° Northeast 554 638 41,000  Level Jacksonville Center
04:24PM 33.9183 -80.5150 31° Northeast 554 638 41,000  Level Jacksonville Center
04:25PM 34.0522 -80.4186 31° Northeast 554 638 41,000  Level Jacksonville Center
04:26PM 34.1858 -80.3219 31° Northeast 549 632 41,000  Level Jacksonville Center
04:27PM 34.3903 -80.1719 31° Northeast 558 642 41,000  Level Washington Center
04:28PM 34.5208 -80.0747 32° Northeast 557 641 41,000  Level Washington Center
04:29PM 34.6644 -79.9686 31° Northeast 563 648 41,000  Level Washington Center
04:30PM 34.7958 -79.8717 31° Northeast 557 641 41,000  Level Washington Center
04:31PM 34.9264 -79.7750 31° Northeast 549 632 41,000  Level Washington Center
04:33PM 35.0594 -79.6767 31° Northeast 556 640 41,000  Level Washington Center
04:34PM 35.1919 -79.5778 31° Northeast 557 641 41,000  Level Washington Center
04:35PM 35.3508 -79.4619 31° Northeast 555 639 41,000  Level Washington Center
04:36PM 35.4861 -79.3644 30° Northeast 566 651 41,000  Level Washington Center
04:37PM 35.6194 -79.2681 30° Northeast 554 638 41,000  Level Washington Center
04:38PM 35.7514 -79.1708 31° Northeast 552 635 41,000  Level Washington Center
04:39PM 35.8825 -79.0725 31° Northeast 548 631 41,000  Level Washington Center
04:40PM 36.0161 -78.9744 31° Northeast 550 633 41,000  Level Washington Center
04:41PM 36.1500 -78.8747 31° Northeast 554 638 41,000  Level Washington Center
04:42PM 36.3100 -78.7558 31° Northeast 558 642 41,000  Level Washington Center
04:43PM 36.4425 -78.6567 31° Northeast 556 640 41,000  Level Washington Center
04:44PM 36.5750 -78.5572 31° Northeast 556 640 41,000  Level Washington Center
04:45PM 36.6933 -78.4678 31° Northeast 555 639 41,000  Level Washington Center
04:46PM 36.8503 -78.3481 31° Northeast 551 634 41,000  Level Washington Center
04:47PM 36.9747 -78.2547 31° Northeast 551 634 41,000  Level Washington Center
04:48PM 37.1128 -78.1494 31° Northeast 553 636 41,000  Level Washington Center
04:49PM 37.2442 -78.0472 32° Northeast 553 636 41,000  Level Washington Center
04:50PM 37.3761 -77.9467 31° Northeast 554 638 41,000  Level Washington Center
04:51PM 37.5328 -77.8228 32° Northeast 554 638 41,000  Level Washington Center
04:52PM 37.6592 -77.7106 35° Northeast 554 638 41,000 -540 Level Washington Center
04:53PM 37.7847 -77.5953 36° Northeast 554 638 39,900 -1,500 Descending Washington Center
04:54PM 37.9086 -77.4822 36° Northeast 554 638 37,900 -1,680 Descending Washington Center
04:55PM 38.0325 -77.3694 36° Northeast 551 634 36,400 -1,380 Descending Washington Center
04:56PM 38.1722 -77.2422 36° Northeast 544 626 35,100 -720 Descending Washington Center
04:57PM 38.2764 -77.1453 36° Northeast 544 626 35,000 -60 Descending Washington Center
04:58PM 38.4183 -77.0139 36° Northeast 550 633 35,000 -600 Level Washington Center
04:59PM 38.5425 -76.8986 36° Northeast 554 638 33,800 -1,320 Descending Washington Center
05:00PM 38.6653 -76.7833 36° Northeast 554 638 32,300 -1,860 Descending Washington Center
05:01PM 38.8064 -76.6311 40° Northeast 554 638 30,000 -2,280 Descending Washington Center
05:03PM 38.9214 -76.4981 42° Northeast 560 644 27,600 -2,340 Descending Washington Center
05:04PM 39.0314 -76.3700 42° Northeast 539 620 25,200 -1,800 Descending Washington Center
05:05PM 39.1358 -76.2467 42° Northeast 518 596 24,000 -600 Descending Washington Center
05:06PM 39.2394 -76.1267 42° Northeast 516 594 24,000 -120 Level Washington Center
05:07PM 39.3703 -75.9947 38° Northeast 499 574 23,800 -1,260 Descending Washington Center
05:08PM 39.4850 -75.8897 35° Northeast 502 578 21,400 -2,460 Descending Washington Center
05:09PM 39.5892 -75.7900 36° Northeast 471 542 18,700 -2,280 Descending Washington Center
05:10PM 39.6856 -75.7011 35° Northeast 430 495 16,800 -2,580 Descending Washington Center
05:11PM 39.7833 -75.6167 34° Northeast 394 453 13,600 -1,920 Descending Philadelphia TRACON
05:12PM 39.8833 -75.5167 37° Northeast 414 476 13,000 -300 Descending Philadelphia TRACON
05:13PM 39.9833 -75.4333 33° Northeast 421 484 13,000  Level Philadelphia TRACON
05:14PM 40.0667 -75.3500 37° Northeast 425 489 13,000 -300 Level Philadelphia TRACON
05:15PM 40.1500 -75.2667 37° Northeast 400 460 12,500 -960 Descending Philadelphia TRACON
05:16PM 40.2333 -75.2000 31° Northeast 318 366 11,200 -1,020 Descending Philadelphia TRACON
05:17PM 40.3167 -75.1167 37° Northeast 304 350 10,300 -1,440 Descending Philadelphia TRACON
05:18PM 40.4000 -75.0167 42° Northeast 290 334 7,600 -1,380 Descending New York TRACON
05:19PM 40.4500 -74.9333 52° Northeast 283 326 7,000 -1,020 Descending New York TRACON
05:20PM 40.5000 -74.8500 52° Northeast 284 327 5,500 -1,560 Descending New York TRACON
05:21PM 40.5500 -74.7833 45° Northeast 253 291 4,100 -840 Descending New York TRACON
05:22PM 40.6000 -74.7333 37° Northeast 250 288 4,000 -60 Descending New York TRACON
05:23PM 40.6500 -74.6667 45° Northeast 252 290 4,000  Level New York TRACON
05:24PM 40.7000 -74.6167 37° Northeast 235 270 4,000  Level New York TRACON
05:25PM 40.7500 -74.5500 45° Northeast 245 282 4,000 -240 Level New York TRACON
05:26PM 40.8000 -74.4833 45° Northeast 239 275 3,600 -540 Descending New York TRACON
05:27PM 40.8500 -74.4167 45° Northeast 246 283 3,000 -300 Descending New York TRACON
05:28PM 40.8833 -74.3500 57° Northeast 246 283 3,000  Level New York TRACON
05:29PM 40.9333 -74.2833 45° Northeast 242 278 3,000 -120 Level New York TRACON
05:30PM 40.9833 -74.2167 45° Northeast 245 282 2,800 -540 Descending New York TRACON
05:31PM 41.0000 -74.1333 75° East 240 276 2,000 -420 Descending New York TRACON
05:32PM 40.9667 -74.0667 123° Southeast 224 258 2,000 -300 Level New York TRACON
05:33PM 40.9167 -74.0500 166° South 139 160 1,500 -720 Descending New York TRACON
05:34PM 40.8833 -74.0500 180° South 124 143 700 -840 Descending New York TRACON